Terminal Aerodrome Forecast
Issued by NWS Sioux Falls, SD

Home | Current Version | Previous Version | Text Only | Print | Product List | Glossary On
Versions: 1 2 3 4 5 6 7 8 9 10 11 12 13 14 15 16 17 18 19 20 21 22 23
000
FTUS43 KFSD 221744
TAFFSD
TAF
KFSD 221744Z 2218/2318 17017G25KT P6SM BKN090
     FM221900 17014G21KT P6SM SCT040 BKN070
     FM222100 20010KT 6SM -RA SCT015 OVC040
      TEMPO 2222/2224 4SM RA BR OVC015
     FM230100 28007KT P6SM SCT008 BKN070
     FM230500 26004KT P6SM SKC
     FM231500 22006KT P6SM SKC=

USA.gov is the U.S. government's official web portal to all federal, state and local government web resources and services.